Aérodrome :
LOGIN :

S'inscrire | Disclaimer

   EN    FR    IT 

 










Légende :    VFR   VFR Marginal   IFR   IFR Intensif   IFR Très Intensif
Visi : 
Plafond : 
>= 8 km
>= 3000ft
5 à 8 km
1000 à 3000 ft
1500m à 5 km
500 à 1000 ft
800 à 1500m
200 à 500 ft
< 800m
< 200 ft
Symboles :   Orages  Brouillard  Fortes neiges  Fortes précipitations  Vent > 20 kt
SIGMETs :   Divers  Orages  Givrage  Turbulence  Onde Orograph.  Cendres Volcan.







- Altitude de l'aérodrome : 0 ft


ETEB - Ansbach Army Heliport

DERNIER METAR :
  • 291258Z AUTO 27014KT 9999 CLR 16/05 A3029 RMK AO2 SLP268 T01630052

METARs EXPIRÉS :
  • 291158Z AUTO 29011KT 9999 BKN050 16/05 A3031 RMK AO2 SLP275 T01550048 10163 20090 58006
  • 291144Z AUTO 29011G20KT 9999 BKN050 16/05 A3031 RMK AO2 WSHFT 29
  • 291058Z AUTO 26012G19KT 9999 SCT044 16/06 A3032 RMK AO2 SLP276 T01550056
  • 290958Z AUTO 28012G17KT 9999 FEW035 15/07 A3033 RMK AO2 SLP282 T01470067

TAF TAF ETEB
Valide du 29 à 13h jusqu'au 30 à 19h UTC


291304Z 2913/3019 28012G18KT 9999 SCT045 QNH3024INS
TEMPO 2913/2915 28015G25KT BKN050 510003
BECMG 2915/2916 27009KT 9999 BKN040 QNH3026INS
BECMG 3002/3003 VRB06KT 9999 BKN025 QNH3031INS
BECMG 3009/3010 VRB06KT 9999 SCT050 QNH3028INS
BECMG 3015/3016 13009KT 9999 FEW050 QNH3025INS TX17/2914Z TN05/3005Z
Pas de NOTAMs connus pour ce terrain.



MET'MAP, la Météo Aéronautique d'un coup d'oeil ! - Copyright ORBIFLY Décembre 2007 - Disclaimer

ORBIFLY MET'MAP TEAM :

Programmation & Développement : Alexandra Zaïnal
Conception & Développement : Baudouin d'Aumeries
Co-Programmation & Développement : Marc-Olivier Méhu
Soutien technique & logistique : Manuel Goepfert

Contact : metmap@orbifly.com




SOURCES & CREDITS :

   NOAA